sensor_id;sensor_type;location;lat;lon;timestamp;P1;durP1;ratioP1;P2;durP2;ratioP2
49860;SDS011;35761;48.826;9.238;2023-06-14T00:02:16;7.75;;;3.90;;
49860;SDS011;35761;48.826;9.238;2023-06-14T00:04:41;9.73;;;3.58;;
49860;SDS011;35761;48.826;9.238;2023-06-14T00:07:08;10.05;;;3.55;;
49860;SDS011;35761;48.826;9.238;2023-06-14T00:09:34;4.72;;;3.00;;
49860;SDS011;35761;48.826;9.238;2023-06-14T00:12:00;9.45;;;3.80;;
49860;SDS011;35761;48.826;9.238;2023-06-14T00:14:25;7.07;;;3.78;;
49860;SDS011;35761;48.826;9.238;2023-06-14T00:16:51;9.00;;;3.50;;
49860;SDS011;35761;48.826;9.238;2023-06-14T00:19:18;8.35;;;3.83;;
49860;SDS011;35761;48.826;9.238;2023-06-14T00:21:44;9.95;;;3.95;;
49860;SDS011;35761;48.826;9.238;2023-06-14T00:24:11;5.40;;;3.53;;
49860;SDS011;35761;48.826;9.238;2023-06-14T00:26:36;5.45;;;3.33;;
49860;SDS011;35761;48.826;9.238;2023-06-14T00:29:01;11.82;;;3.72;;
49860;SDS011;35761;48.826;9.238;2023-06-14T00:31:27;7.68;;;3.60;;
49860;SDS011;35761;48.826;9.238;2023-06-14T00:33:53;6.35;;;3.65;;
49860;SDS011;35761;48.826;9.238;2023-06-14T00:36:18;7.10;;;3.58;;
49860;SDS011;35761;48.826;9.238;2023-06-14T00:38:44;9.52;;;3.72;;
49860;SDS011;35761;48.826;9.238;2023-06-14T00:41:09;6.80;;;3.30;;
49860;SDS011;35761;48.826;9.238;2023-06-14T00:43:35;9.27;;;3.83;;
49860;SDS011;35761;48.826;9.238;2023-06-14T00:46:00;5.85;;;3.58;;
49860;SDS011;35761;48.826;9.238;2023-06-14T00:48:26;13.13;;;4.45;;
49860;SDS011;35761;48.826;9.238;2023-06-14T00:50:52;12.10;;;3.92;;
49860;SDS011;35761;48.826;9.238;2023-06-14T00:53:19;8.73;;;3.58;;
49860;SDS011;35761;48.826;9.238;2023-06-14T00:55:45;7.55;;;3.60;;
49860;SDS011;35761;48.826;9.238;2023-06-14T00:58:12;7.85;;;3.35;;
49860;SDS011;35761;48.826;9.238;2023-06-14T01:00:37;9.90;;;3.58;;
49860;SDS011;35761;48.826;9.238;2023-06-14T01:03:03;8.50;;;3.72;;
49860;SDS011;35761;48.826;9.238;2023-06-14T01:05:29;7.45;;;3.88;;
49860;SDS011;35761;48.826;9.238;2023-06-14T01:13:07;7.70;;;3.72;;
49860;SDS011;35761;48.826;9.238;2023-06-14T01:15:36;13.25;;;3.80;;
49860;SDS011;35761;48.826;9.238;2023-06-14T01:18:03;10.88;;;3.45;;
49860;SDS011;35761;48.826;9.238;2023-06-14T01:20:29;8.25;;;3.85;;
49860;SDS011;35761;48.826;9.238;2023-06-14T01:22:56;7.45;;;3.17;;
49860;SDS011;35761;48.826;9.238;2023-06-14T01:25:22;5.57;;;3.60;;
49860;SDS011;35761;48.826;9.238;2023-06-14T01:27:49;8.85;;;3.92;;
49860;SDS011;35761;48.826;9.238;2023-06-14T01:30:17;9.07;;;3.63;;
49860;SDS011;35761;48.826;9.238;2023-06-14T01:32:43;8.05;;;3.65;;
49860;SDS011;35761;48.826;9.238;2023-06-14T01:35:09;10.40;;;4.05;;
49860;SDS011;35761;48.826;9.238;2023-06-14T01:37:34;7.45;;;3.83;;
49860;SDS011;35761;48.826;9.238;2023-06-14T01:40:01;8.13;;;4.38;;
49860;SDS011;35761;48.826;9.238;2023-06-14T01:42:29;6.72;;;3.50;;
49860;SDS011;35761;48.826;9.238;2023-06-14T01:44:54;6.65;;;3.75;;
49860;SDS011;35761;48.826;9.238;2023-06-14T01:47:20;9.40;;;3.92;;
49860;SDS011;35761;48.826;9.238;2023-06-14T01:49:47;8.00;;;3.60;;
49860;SDS011;35761;48.826;9.238;2023-06-14T01:52:13;5.97;;;4.10;;
49860;SDS011;35761;48.826;9.238;2023-06-14T01:54:38;7.53;;;3.95;;
49860;SDS011;35761;48.826;9.238;2023-06-14T01:57:08;8.25;;;3.65;;
49860;SDS011;35761;48.826;9.238;2023-06-14T01:59:33;5.32;;;3.47;;
49860;SDS011;35761;48.826;9.238;2023-06-14T02:02:01;9.60;;;3.63;;
49860;SDS011;35761;48.826;9.238;2023-06-14T02:04:27;6.47;;;3.80;;
49860;SDS011;35761;48.826;9.238;2023-06-14T02:06:53;8.38;;;3.50;;
49860;SDS011;35761;48.826;9.238;2023-06-14T02:09:18;6.47;;;3.50;;
49860;SDS011;35761;48.826;9.238;2023-06-14T02:11:44;8.00;;;4.32;;
49860;SDS011;35761;48.826;9.238;2023-06-14T02:14:09;10.20;;;3.78;;
49860;SDS011;35761;48.826;9.238;2023-06-14T02:16:36;6.57;;;3.75;;
49860;SDS011;35761;48.826;9.238;2023-06-14T02:19:04;5.15;;;3.60;;
49860;SDS011;35761;48.826;9.238;2023-06-14T02:21:30;6.95;;;3.70;;
49860;SDS011;35761;48.826;9.238;2023-06-14T02:23:56;5.88;;;3.78;;
49860;SDS011;35761;48.826;9.238;2023-06-14T02:26:21;9.18;;;3.70;;
49860;SDS011;35761;48.826;9.238;2023-06-14T02:28:50;6.05;;;3.67;;
49860;SDS011;35761;48.826;9.238;2023-06-14T02:31:16;7.60;;;3.88;;
49860;SDS011;35761;48.826;9.238;2023-06-14T02:33:41;10.25;;;3.90;;
49860;SDS011;35761;48.826;9.238;2023-06-14T02:36:07;10.48;;;4.63;;
49860;SDS011;35761;48.826;9.238;2023-06-14T02:38:33;18.13;;;4.28;;
49860;SDS011;35761;48.826;9.238;2023-06-14T02:40:59;13.30;;;4.90;;
49860;SDS011;35761;48.826;9.238;2023-06-14T02:43:28;8.15;;;3.75;;
49860;SDS011;35761;48.826;9.238;2023-06-14T02:45:54;9.82;;;4.28;;
49860;SDS011;35761;48.826;9.238;2023-06-14T02:48:20;10.52;;;5.22;;
49860;SDS011;35761;48.826;9.238;2023-06-14T02:50:45;14.40;;;5.47;;
49860;SDS011;35761;48.826;9.238;2023-06-14T02:53:11;11.38;;;6.55;;
49860;SDS011;35761;48.826;9.238;2023-06-14T02:55:37;10.68;;;4.93;;
49860;SDS011;35761;48.826;9.238;2023-06-14T02:58:05;9.57;;;5.32;;
49860;SDS011;35761;48.826;9.238;2023-06-14T03:00:31;8.90;;;5.07;;
49860;SDS011;35761;48.826;9.238;2023-06-14T03:02:56;6.30;;;4.20;;
49860;SDS011;35761;48.826;9.238;2023-06-14T03:05:23;15.75;;;5.15;;
49860;SDS011;35761;48.826;9.238;2023-06-14T03:07:49;7.00;;;3.92;;
49860;SDS011;35761;48.826;9.238;2023-06-14T03:10:15;8.18;;;4.32;;
49860;SDS011;35761;48.826;9.238;2023-06-14T03:12:42;9.85;;;4.47;;
49860;SDS011;35761;48.826;9.238;2023-06-14T03:15:10;7.57;;;4.45;;
49860;SDS011;35761;48.826;9.238;2023-06-14T03:17:39;9.23;;;4.03;;
49860;SDS011;35761;48.826;9.238;2023-06-14T03:20:07;10.20;;;3.90;;
49860;SDS011;35761;48.826;9.238;2023-06-14T03:22:33;7.45;;;4.13;;
49860;SDS011;35761;48.826;9.238;2023-06-14T03:24:59;12.80;;;4.30;;
49860;SDS011;35761;48.826;9.238;2023-06-14T03:27:26;22.60;;;6.40;;
49860;SDS011;35761;48.826;9.238;2023-06-14T03:29:54;10.07;;;4.28;;
49860;SDS011;35761;48.826;9.238;2023-06-14T03:32:20;7.38;;;4.50;;
49860;SDS011;35761;48.826;9.238;2023-06-14T03:34:46;10.52;;;4.22;;
49860;SDS011;35761;48.826;9.238;2023-06-14T03:37:19;7.78;;;4.30;;
49860;SDS011;35761;48.826;9.238;2023-06-14T03:39:46;6.60;;;3.83;;
49860;SDS011;35761;48.826;9.238;2023-06-14T03:42:15;6.07;;;3.92;;
49860;SDS011;35761;48.826;9.238;2023-06-14T03:44:42;7.35;;;3.83;;
49860;SDS011;35761;48.826;9.238;2023-06-14T03:47:07;6.22;;;3.50;;
49860;SDS011;35761;48.826;9.238;2023-06-14T03:49:33;7.18;;;4.53;;
49860;SDS011;35761;48.826;9.238;2023-06-14T03:51:58;7.22;;;3.67;;
49860;SDS011;35761;48.826;9.238;2023-06-14T03:54:26;6.20;;;4.10;;
49860;SDS011;35761;48.826;9.238;2023-06-14T03:56:52;8.10;;;4.03;;
49860;SDS011;35761;48.826;9.238;2023-06-14T03:59:18;8.13;;;4.15;;
49860;SDS011;35761;48.826;9.238;2023-06-14T04:01:44;10.02;;;4.35;;
49860;SDS011;35761;48.826;9.238;2023-06-14T04:04:13;8.65;;;4.38;;
49860;SDS011;35761;48.826;9.238;2023-06-14T04:06:41;10.88;;;4.90;;
49860;SDS011;35761;48.826;9.238;2023-06-14T04:09:09;12.13;;;8.00;;
49860;SDS011;35761;48.826;9.238;2023-06-14T04:11:34;8.25;;;5.28;;
49860;SDS011;35761;48.826;9.238;2023-06-14T04:14:01;9.43;;;4.20;;
49860;SDS011;35761;48.826;9.238;2023-06-14T04:16:27;10.90;;;4.60;;
49860;SDS011;35761;48.826;9.238;2023-06-14T04:18:53;7.50;;;4.78;;
49860;SDS011;35761;48.826;9.238;2023-06-14T04:21:21;6.47;;;4.45;;
49860;SDS011;35761;48.826;9.238;2023-06-14T04:23:50;7.95;;;4.38;;
49860;SDS011;35761;48.826;9.238;2023-06-14T04:26:19;6.88;;;4.28;;
49860;SDS011;35761;48.826;9.238;2023-06-14T04:28:46;11.45;;;5.45;;
49860;SDS011;35761;48.826;9.238;2023-06-14T04:31:12;7.80;;;4.95;;
49860;SDS011;35761;48.826;9.238;2023-06-14T04:33:38;9.40;;;4.38;;
49860;SDS011;35761;48.826;9.238;2023-06-14T04:36:14;16.90;;;5.00;;
49860;SDS011;35761;48.826;9.238;2023-06-14T04:38:42;12.77;;;4.20;;
49860;SDS011;35761;48.826;9.238;2023-06-14T04:41:13;6.80;;;4.10;;
49860;SDS011;35761;48.826;9.238;2023-06-14T04:43:41;10.15;;;4.80;;
49860;SDS011;35761;48.826;9.238;2023-06-14T04:46:08;16.60;;;5.65;;
49860;SDS011;35761;48.826;9.238;2023-06-14T04:48:37;11.82;;;5.15;;
49860;SDS011;35761;48.826;9.238;2023-06-14T04:51:06;11.75;;;4.85;;
49860;SDS011;35761;48.826;9.238;2023-06-14T04:53:32;11.23;;;4.65;;
49860;SDS011;35761;48.826;9.238;2023-06-14T04:55:58;15.57;;;4.55;;
49860;SDS011;35761;48.826;9.238;2023-06-14T04:58:26;11.50;;;4.70;;
49860;SDS011;35761;48.826;9.238;2023-06-14T05:00:53;12.13;;;4.97;;
49860;SDS011;35761;48.826;9.238;2023-06-14T05:03:21;9.65;;;5.30;;
49860;SDS011;35761;48.826;9.238;2023-06-14T05:05:50;18.15;;;5.07;;
49860;SDS011;35761;48.826;9.238;2023-06-14T05:08:16;9.13;;;5.40;;
49860;SDS011;35761;48.826;9.238;2023-06-14T05:10:42;13.40;;;4.90;;
49860;SDS011;35761;48.826;9.238;2023-06-14T05:13:08;9.82;;;4.57;;
49860;SDS011;35761;48.826;9.238;2023-06-14T05:15:33;12.18;;;5.03;;
49860;SDS011;35761;48.826;9.238;2023-06-14T05:17:59;14.63;;;6.22;;
49860;SDS011;35761;48.826;9.238;2023-06-14T05:20:25;9.90;;;4.57;;
49860;SDS011;35761;48.826;9.238;2023-06-14T05:22:54;10.80;;;5.18;;
49860;SDS011;35761;48.826;9.238;2023-06-14T05:25:20;10.40;;;5.70;;
49860;SDS011;35761;48.826;9.238;2023-06-14T05:27:46;11.40;;;5.30;;
49860;SDS011;35761;48.826;9.238;2023-06-14T05:30:12;11.85;;;5.10;;
49860;SDS011;35761;48.826;9.238;2023-06-14T05:32:38;14.32;;;7.75;;
49860;SDS011;35761;48.826;9.238;2023-06-14T05:35:03;14.77;;;5.15;;
49860;SDS011;35761;48.826;9.238;2023-06-14T05:37:29;12.25;;;4.95;;
49860;SDS011;35761;48.826;9.238;2023-06-14T05:39:56;10.57;;;4.93;;
49860;SDS011;35761;48.826;9.238;2023-06-14T05:42:21;8.50;;;4.60;;
49860;SDS011;35761;48.826;9.238;2023-06-14T05:44:46;8.88;;;4.80;;
49860;SDS011;35761;48.826;9.238;2023-06-14T05:47:12;7.93;;;5.10;;
49860;SDS011;35761;48.826;9.238;2023-06-14T05:49:37;12.07;;;4.65;;
49860;SDS011;35761;48.826;9.238;2023-06-14T05:52:03;10.90;;;4.78;;
49860;SDS011;35761;48.826;9.238;2023-06-14T05:54:29;13.15;;;4.82;;
49860;SDS011;35761;48.826;9.238;2023-06-14T05:56:54;8.25;;;4.65;;
49860;SDS011;35761;48.826;9.238;2023-06-14T05:59:20;8.70;;;4.60;;
49860;SDS011;35761;48.826;9.238;2023-06-14T06:01:45;16.10;;;4.63;;
49860;SDS011;35761;48.826;9.238;2023-06-14T06:04:11;10.95;;;5.30;;
49860;SDS011;35761;48.826;9.238;2023-06-14T06:06:37;14.35;;;4.65;;
49860;SDS011;35761;48.826;9.238;2023-06-14T06:09:02;7.70;;;4.40;;
49860;SDS011;35761;48.826;9.238;2023-06-14T06:11:28;8.25;;;4.78;;
49860;SDS011;35761;48.826;9.238;2023-06-14T06:13:53;9.75;;;4.45;;
49860;SDS011;35761;48.826;9.238;2023-06-14T06:16:19;7.75;;;4.32;;
49860;SDS011;35761;48.826;9.238;2023-06-14T06:18:44;5.97;;;4.07;;
49860;SDS011;35761;48.826;9.238;2023-06-14T06:21:10;10.68;;;4.00;;
49860;SDS011;35761;48.826;9.238;2023-06-14T06:23:35;10.60;;;5.55;;
49860;SDS011;35761;48.826;9.238;2023-06-14T06:26:00;7.32;;;4.57;;
49860;SDS011;35761;48.826;9.238;2023-06-14T06:28:26;10.07;;;4.78;;
49860;SDS011;35761;48.826;9.238;2023-06-14T06:30:52;15.68;;;4.80;;
49860;SDS011;35761;48.826;9.238;2023-06-14T06:33:18;13.68;;;5.03;;
49860;SDS011;35761;48.826;9.238;2023-06-14T06:35:44;11.05;;;5.00;;
49860;SDS011;35761;48.826;9.238;2023-06-14T06:38:09;12.73;;;4.85;;
49860;SDS011;35761;48.826;9.238;2023-06-14T06:40:35;11.05;;;5.80;;
49860;SDS011;35761;48.826;9.238;2023-06-14T06:43:01;12.50;;;5.28;;
49860;SDS011;35761;48.826;9.238;2023-06-14T06:45:28;8.73;;;4.32;;
49860;SDS011;35761;48.826;9.238;2023-06-14T06:47:54;9.60;;;4.90;;
49860;SDS011;35761;48.826;9.238;2023-06-14T06:50:20;7.72;;;3.60;;
49860;SDS011;35761;48.826;9.238;2023-06-14T06:52:48;22.48;;;4.20;;
49860;SDS011;35761;48.826;9.238;2023-06-14T06:55:14;6.57;;;3.95;;
49860;SDS011;35761;48.826;9.238;2023-06-14T06:57:39;7.65;;;4.60;;
49860;SDS011;35761;48.826;9.238;2023-06-14T07:00:05;7.90;;;4.22;;
49860;SDS011;35761;48.826;9.238;2023-06-14T07:02:34;11.57;;;4.72;;
49860;SDS011;35761;48.826;9.238;2023-06-14T07:04:59;10.35;;;4.07;;
49860;SDS011;35761;48.826;9.238;2023-06-14T07:07:25;8.15;;;4.13;;
49860;SDS011;35761;48.826;9.238;2023-06-14T07:09:50;6.40;;;4.18;;
49860;SDS011;35761;48.826;9.238;2023-06-14T07:12:16;13.68;;;3.95;;
49860;SDS011;35761;48.826;9.238;2023-06-14T07:14:41;10.20;;;4.20;;
49860;SDS011;35761;48.826;9.238;2023-06-14T07:17:07;11.32;;;3.75;;
49860;SDS011;35761;48.826;9.238;2023-06-14T07:19:35;9.65;;;3.90;;
49860;SDS011;35761;48.826;9.238;2023-06-14T07:22:00;9.38;;;4.38;;
49860;SDS011;35761;48.826;9.238;2023-06-14T07:24:26;7.32;;;3.50;;
49860;SDS011;35761;48.826;9.238;2023-06-14T07:26:53;10.18;;;3.33;;
49860;SDS011;35761;48.826;9.238;2023-06-14T07:29:19;7.45;;;3.75;;
49860;SDS011;35761;48.826;9.238;2023-06-14T07:31:46;11.38;;;3.72;;
49860;SDS011;35761;48.826;9.238;2023-06-14T07:34:11;7.78;;;3.55;;
49860;SDS011;35761;48.826;9.238;2023-06-14T07:36:37;12.77;;;3.75;;
49860;SDS011;35761;48.826;9.238;2023-06-14T07:39:03;5.53;;;3.60;;
49860;SDS011;35761;48.826;9.238;2023-06-14T07:41:31;10.88;;;3.58;;
49860;SDS011;35761;48.826;9.238;2023-06-14T07:43:56;10.18;;;4.65;;
49860;SDS011;35761;48.826;9.238;2023-06-14T07:46:21;7.55;;;3.80;;
49860;SDS011;35761;48.826;9.238;2023-06-14T07:48:47;13.77;;;4.10;;
49860;SDS011;35761;48.826;9.238;2023-06-14T07:51:13;7.35;;;3.70;;
49860;SDS011;35761;48.826;9.238;2023-06-14T07:53:38;5.95;;;3.97;;
49860;SDS011;35761;48.826;9.238;2023-06-14T07:56:06;9.85;;;3.97;;
49860;SDS011;35761;48.826;9.238;2023-06-14T07:58:31;9.00;;;4.05;;
49860;SDS011;35761;48.826;9.238;2023-06-14T08:00:57;7.43;;;3.88;;
49860;SDS011;35761;48.826;9.238;2023-06-14T08:03:22;8.73;;;3.92;;
49860;SDS011;35761;48.826;9.238;2023-06-14T08:05:48;7.75;;;3.33;;
49860;SDS011;35761;48.826;9.238;2023-06-14T08:08:13;8.57;;;3.30;;
49860;SDS011;35761;48.826;9.238;2023-06-14T08:10:38;9.77;;;3.42;;
49860;SDS011;35761;48.826;9.238;2023-06-14T08:13:04;10.57;;;3.72;;
49860;SDS011;35761;48.826;9.238;2023-06-14T08:15:29;5.45;;;3.65;;
49860;SDS011;35761;48.826;9.238;2023-06-14T08:17:55;11.27;;;4.10;;
49860;SDS011;35761;48.826;9.238;2023-06-14T08:20:21;8.10;;;3.72;;
49860;SDS011;35761;48.826;9.238;2023-06-14T08:22:46;8.73;;;3.60;;
49860;SDS011;35761;48.826;9.238;2023-06-14T08:25:13;8.77;;;3.75;;
49860;SDS011;35761;48.826;9.238;2023-06-14T08:27:38;7.55;;;3.67;;
49860;SDS011;35761;48.826;9.238;2023-06-14T08:30:05;9.65;;;3.47;;
49860;SDS011;35761;48.826;9.238;2023-06-14T08:32:32;9.05;;;3.50;;
49860;SDS011;35761;48.826;9.238;2023-06-14T08:34:58;14.77;;;4.38;;
49860;SDS011;35761;48.826;9.238;2023-06-14T08:37:23;9.02;;;3.30;;
49860;SDS011;35761;48.826;9.238;2023-06-14T08:39:49;11.73;;;3.67;;
49860;SDS011;35761;48.826;9.238;2023-06-14T08:42:15;8.35;;;3.47;;
49860;SDS011;35761;48.826;9.238;2023-06-14T08:44:40;8.63;;;4.03;;
49860;SDS011;35761;48.826;9.238;2023-06-14T08:47:07;10.98;;;3.75;;
49860;SDS011;35761;48.826;9.238;2023-06-14T08:49:33;14.27;;;4.07;;
49860;SDS011;35761;48.826;9.238;2023-06-14T08:51:59;11.68;;;3.45;;
49860;SDS011;35761;48.826;9.238;2023-06-14T08:54:27;9.73;;;3.40;;
49860;SDS011;35761;48.826;9.238;2023-06-14T08:56:55;9.15;;;3.60;;
49860;SDS011;35761;48.826;9.238;2023-06-14T08:59:25;12.90;;;3.80;;
49860;SDS011;35761;48.826;9.238;2023-06-14T09:01:52;8.40;;;4.15;;
49860;SDS011;35761;48.826;9.238;2023-06-14T09:04:19;8.63;;;4.03;;
49860;SDS011;35761;48.826;9.238;2023-06-14T09:06:46;13.02;;;3.88;;
49860;SDS011;35761;48.826;9.238;2023-06-14T09:09:18;6.82;;;3.30;;
49860;SDS011;35761;48.826;9.238;2023-06-14T09:11:45;8.98;;;3.75;;
49860;SDS011;35761;48.826;9.238;2023-06-14T09:14:11;15.00;;;4.32;;
49860;SDS011;35761;48.826;9.238;2023-06-14T09:16:36;15.75;;;4.05;;
49860;SDS011;35761;48.826;9.238;2023-06-14T09:19:02;11.07;;;3.65;;
49860;SDS011;35761;48.826;9.238;2023-06-14T09:21:27;16.45;;;4.82;;
49860;SDS011;35761;48.826;9.238;2023-06-14T09:23:53;13.57;;;4.50;;
49860;SDS011;35761;48.826;9.238;2023-06-14T09:26:19;11.25;;;4.05;;
49860;SDS011;35761;48.826;9.238;2023-06-14T09:28:45;11.00;;;4.00;;
49860;SDS011;35761;48.826;9.238;2023-06-14T09:31:12;6.82;;;3.33;;
49860;SDS011;35761;48.826;9.238;2023-06-14T09:33:45;7.10;;;3.65;;
49860;SDS011;35761;48.826;9.238;2023-06-14T09:36:22;6.95;;;3.38;;
49860;SDS011;35761;48.826;9.238;2023-06-14T09:38:59;8.13;;;3.53;;
49860;SDS011;35761;48.826;9.238;2023-06-14T09:41:35;5.40;;;3.30;;
49860;SDS011;35761;48.826;9.238;2023-06-14T09:44:03;10.18;;;4.00;;
49860;SDS011;35761;48.826;9.238;2023-06-14T09:46:30;8.50;;;3.20;;
49860;SDS011;35761;48.826;9.238;2023-06-14T09:48:57;8.45;;;3.45;;
49860;SDS011;35761;48.826;9.238;2023-06-14T09:51:23;10.40;;;4.03;;
49860;SDS011;35761;48.826;9.238;2023-06-14T09:53:48;8.55;;;3.30;;
49860;SDS011;35761;48.826;9.238;2023-06-14T09:56:25;6.90;;;3.50;;
49860;SDS011;35761;48.826;9.238;2023-06-14T09:58:54;9.98;;;3.30;;
49860;SDS011;35761;48.826;9.238;2023-06-14T10:01:20;7.60;;;3.50;;
49860;SDS011;35761;48.826;9.238;2023-06-14T10:03:47;6.65;;;3.53;;
49860;SDS011;35761;48.826;9.238;2023-06-14T10:06:15;7.38;;;3.05;;
49860;SDS011;35761;48.826;9.238;2023-06-14T10:08:40;8.93;;;3.50;;
49860;SDS011;35761;48.826;9.238;2023-06-14T10:11:06;7.50;;;3.95;;
49860;SDS011;35761;48.826;9.238;2023-06-14T10:13:32;7.85;;;3.38;;
49860;SDS011;35761;48.826;9.238;2023-06-14T10:16:10;8.40;;;3.08;;
49860;SDS011;35761;48.826;9.238;2023-06-14T10:18:46;11.13;;;3.13;;
49860;SDS011;35761;48.826;9.238;2023-06-14T10:21:22;8.10;;;3.05;;
49860;SDS011;35761;48.826;9.238;2023-06-14T10:23:54;14.95;;;3.47;;
49860;SDS011;35761;48.826;9.238;2023-06-14T10:26:21;7.57;;;3.15;;
49860;SDS011;35761;48.826;9.238;2023-06-14T10:28:55;5.25;;;3.03;;
49860;SDS011;35761;48.826;9.238;2023-06-14T10:31:45;5.97;;;2.72;;
49860;SDS011;35761;48.826;9.238;2023-06-14T10:34:12;7.90;;;3.33;;
49860;SDS011;35761;48.826;9.238;2023-06-14T10:36:50;11.32;;;3.20;;
49860;SDS011;35761;48.826;9.238;2023-06-14T10:39:28;11.18;;;3.20;;
49860;SDS011;35761;48.826;9.238;2023-06-14T10:41:55;12.90;;;4.43;;
49860;SDS011;35761;48.826;9.238;2023-06-14T10:46:52;8.63;;;3.30;;
49860;SDS011;35761;48.826;9.238;2023-06-14T10:49:18;6.20;;;3.42;;
49860;SDS011;35761;48.826;9.238;2023-06-14T10:51:44;10.32;;;3.85;;
49860;SDS011;35761;48.826;9.238;2023-06-14T10:54:17;14.02;;;3.42;;
49860;SDS011;35761;48.826;9.238;2023-06-14T10:56:46;6.13;;;3.40;;
49860;SDS011;35761;48.826;9.238;2023-06-14T10:59:12;8.93;;;3.63;;
49860;SDS011;35761;48.826;9.238;2023-06-14T11:01:49;6.47;;;3.78;;
49860;SDS011;35761;48.826;9.238;2023-06-14T11:04:23;8.82;;;3.20;;
49860;SDS011;35761;48.826;9.238;2023-06-14T11:07:01;9.07;;;3.33;;
49860;SDS011;35761;48.826;9.238;2023-06-14T11:12:32;7.60;;;3.03;;
49860;SDS011;35761;48.826;9.238;2023-06-14T11:14:58;9.55;;;3.35;;
49860;SDS011;35761;48.826;9.238;2023-06-14T11:17:24;8.25;;;3.25;;
49860;SDS011;35761;48.826;9.238;2023-06-14T11:19:50;10.30;;;3.30;;
49860;SDS011;35761;48.826;9.238;2023-06-14T11:22:15;7.88;;;3.05;;
49860;SDS011;35761;48.826;9.238;2023-06-14T11:24:42;6.20;;;3.15;;
49860;SDS011;35761;48.826;9.238;2023-06-14T11:27:08;8.18;;;2.88;;
49860;SDS011;35761;48.826;9.238;2023-06-14T11:29:33;6.80;;;3.40;;
49860;SDS011;35761;48.826;9.238;2023-06-14T11:31:59;10.35;;;2.92;;
49860;SDS011;35761;48.826;9.238;2023-06-14T11:34:25;10.40;;;3.08;;
49860;SDS011;35761;48.826;9.238;2023-06-14T11:36:50;7.50;;;2.92;;
49860;SDS011;35761;48.826;9.238;2023-06-14T11:39:16;5.45;;;3.00;;
49860;SDS011;35761;48.826;9.238;2023-06-14T11:41:43;6.63;;;3.17;;
49860;SDS011;35761;48.826;9.238;2023-06-14T11:44:09;11.50;;;3.67;;
49860;SDS011;35761;48.826;9.238;2023-06-14T11:46:35;7.40;;;3.25;;
49860;SDS011;35761;48.826;9.238;2023-06-14T11:49:01;10.25;;;3.05;;
49860;SDS011;35761;48.826;9.238;2023-06-14T11:51:32;4.95;;;2.90;;
49860;SDS011;35761;48.826;9.238;2023-06-14T11:53:58;5.72;;;3.10;;
49860;SDS011;35761;48.826;9.238;2023-06-14T11:56:24;12.98;;;3.25;;
49860;SDS011;35761;48.826;9.238;2023-06-14T11:58:50;8.68;;;2.90;;
49860;SDS011;35761;48.826;9.238;2023-06-14T12:01:17;13.57;;;3.35;;
49860;SDS011;35761;48.826;9.238;2023-06-14T12:03:50;8.80;;;3.53;;
49860;SDS011;35761;48.826;9.238;2023-06-14T12:06:16;9.45;;;3.10;;
49860;SDS011;35761;48.826;9.238;2023-06-14T12:08:54;6.65;;;3.00;;
49860;SDS011;35761;48.826;9.238;2023-06-14T12:11:20;6.97;;;3.10;;
49860;SDS011;35761;48.826;9.238;2023-06-14T12:13:46;10.75;;;3.05;;
49860;SDS011;35761;48.826;9.238;2023-06-14T12:16:13;5.35;;;2.90;;
49860;SDS011;35761;48.826;9.238;2023-06-14T12:18:39;12.93;;;3.30;;
49860;SDS011;35761;48.826;9.238;2023-06-14T12:21:06;6.72;;;3.00;;
49860;SDS011;35761;48.826;9.238;2023-06-14T12:23:39;7.25;;;2.90;;
49860;SDS011;35761;48.826;9.238;2023-06-14T12:26:18;6.63;;;2.78;;
49860;SDS011;35761;48.826;9.238;2023-06-14T12:28:44;12.10;;;2.85;;
49860;SDS011;35761;48.826;9.238;2023-06-14T12:31:11;11.70;;;2.95;;
49860;SDS011;35761;48.826;9.238;2023-06-14T12:33:38;8.25;;;3.10;;
49860;SDS011;35761;48.826;9.238;2023-06-14T12:49:48;8.70;;;2.50;;
49860;SDS011;35761;48.826;9.238;2023-06-14T12:52:14;5.63;;;2.90;;
49860;SDS011;35761;48.826;9.238;2023-06-14T12:54:39;9.77;;;2.70;;
49860;SDS011;35761;48.826;9.238;2023-06-14T12:57:06;6.43;;;2.83;;
49860;SDS011;35761;48.826;9.238;2023-06-14T12:59:31;9.55;;;2.92;;
49860;SDS011;35761;48.826;9.238;2023-06-14T13:02:11;5.05;;;2.70;;
49860;SDS011;35761;48.826;9.238;2023-06-14T13:04:43;13.27;;;3.15;;
49860;SDS011;35761;48.826;9.238;2023-06-14T13:07:09;6.05;;;3.13;;
49860;SDS011;35761;48.826;9.238;2023-06-14T13:09:36;8.55;;;2.75;;
49860;SDS011;35761;48.826;9.238;2023-06-14T13:12:01;12.77;;;2.78;;
49860;SDS011;35761;48.826;9.238;2023-06-14T13:14:27;5.38;;;2.65;;
49860;SDS011;35761;48.826;9.238;2023-06-14T13:16:53;7.35;;;4.07;;
49860;SDS011;35761;48.826;9.238;2023-06-14T13:19:18;8.27;;;2.90;;
49860;SDS011;35761;48.826;9.238;2023-06-14T13:21:44;6.85;;;2.80;;
49860;SDS011;35761;48.826;9.238;2023-06-14T13:24:09;6.32;;;3.03;;
49860;SDS011;35761;48.826;9.238;2023-06-14T13:26:35;10.15;;;3.28;;
49860;SDS011;35761;48.826;9.238;2023-06-14T13:29:00;9.13;;;3.13;;
49860;SDS011;35761;48.826;9.238;2023-06-14T13:31:26;7.57;;;2.95;;
49860;SDS011;35761;48.826;9.238;2023-06-14T13:33:51;11.15;;;3.00;;
49860;SDS011;35761;48.826;9.238;2023-06-14T13:36:17;12.10;;;3.22;;
49860;SDS011;35761;48.826;9.238;2023-06-14T13:38:42;16.00;;;2.97;;
49860;SDS011;35761;48.826;9.238;2023-06-14T13:41:08;3.90;;;2.33;;
49860;SDS011;35761;48.826;9.238;2023-06-14T13:43:33;8.30;;;3.00;;
49860;SDS011;35761;48.826;9.238;2023-06-14T13:45:59;4.65;;;2.60;;
49860;SDS011;35761;48.826;9.238;2023-06-14T13:48:24;7.25;;;2.88;;
49860;SDS011;35761;48.826;9.238;2023-06-14T13:50:50;5.63;;;2.80;;
49860;SDS011;35761;48.826;9.238;2023-06-14T13:53:15;5.53;;;2.80;;
49860;SDS011;35761;48.826;9.238;2023-06-14T13:55:41;6.75;;;2.90;;
49860;SDS011;35761;48.826;9.238;2023-06-14T13:58:06;8.02;;;2.50;;
49860;SDS011;35761;48.826;9.238;2023-06-14T14:00:32;7.75;;;2.88;;
49860;SDS011;35761;48.826;9.238;2023-06-14T14:02:57;8.52;;;2.80;;
49860;SDS011;35761;48.826;9.238;2023-06-14T14:05:25;5.03;;;3.15;;
49860;SDS011;35761;48.826;9.238;2023-06-14T14:07:54;5.88;;;2.97;;
49860;SDS011;35761;48.826;9.238;2023-06-14T14:10:21;6.60;;;3.15;;
49860;SDS011;35761;48.826;9.238;2023-06-14T14:12:48;11.40;;;2.85;;
49860;SDS011;35761;48.826;9.238;2023-06-14T14:15:14;8.70;;;3.08;;
49860;SDS011;35761;48.826;9.238;2023-06-14T14:17:40;6.38;;;3.03;;
49860;SDS011;35761;48.826;9.238;2023-06-14T14:20:06;4.70;;;2.75;;
49860;SDS011;35761;48.826;9.238;2023-06-14T14:22:32;5.60;;;2.78;;
49860;SDS011;35761;48.826;9.238;2023-06-14T14:24:57;8.18;;;2.78;;
49860;SDS011;35761;48.826;9.238;2023-06-14T14:27:23;4.95;;;2.95;;
49860;SDS011;35761;48.826;9.238;2023-06-14T14:29:48;9.95;;;2.83;;
49860;SDS011;35761;48.826;9.238;2023-06-14T14:32:14;6.72;;;3.28;;
49860;SDS011;35761;48.826;9.238;2023-06-14T14:34:40;4.88;;;2.90;;
49860;SDS011;35761;48.826;9.238;2023-06-14T14:37:06;10.15;;;3.97;;
49860;SDS011;35761;48.826;9.238;2023-06-14T14:39:31;5.55;;;3.03;;
49860;SDS011;35761;48.826;9.238;2023-06-14T14:41:57;6.13;;;3.42;;
49860;SDS011;35761;48.826;9.238;2023-06-14T14:44:22;4.38;;;2.70;;
49860;SDS011;35761;48.826;9.238;2023-06-14T14:46:47;3.97;;;2.60;;
49860;SDS011;35761;48.826;9.238;2023-06-14T14:49:13;5.00;;;2.70;;
49860;SDS011;35761;48.826;9.238;2023-06-14T14:51:39;8.68;;;2.60;;
49860;SDS011;35761;48.826;9.238;2023-06-14T14:54:05;4.18;;;2.40;;
49860;SDS011;35761;48.826;9.238;2023-06-14T14:56:31;4.93;;;2.60;;
49860;SDS011;35761;48.826;9.238;2023-06-14T14:58:56;5.75;;;2.30;;
49860;SDS011;35761;48.826;9.238;2023-06-14T15:01:22;7.00;;;2.30;;
49860;SDS011;35761;48.826;9.238;2023-06-14T15:03:48;11.43;;;2.83;;
49860;SDS011;35761;48.826;9.238;2023-06-14T15:06:13;10.23;;;3.05;;